sensor_id;sensor_type;location;lat;lon;timestamp;P1;durP1;ratioP1;P2;durP2;ratioP2
6109;SDS011;3085;49.444;11.054;2023-05-10T00:01:49;8.10;;;4.00;;
6109;SDS011;3085;49.444;11.054;2023-05-10T00:04:17;12.13;;;5.73;;
6109;SDS011;3085;49.444;11.054;2023-05-10T00:06:43;9.60;;;4.30;;
6109;SDS011;3085;49.444;11.054;2023-05-10T00:09:12;7.70;;;4.37;;
6109;SDS011;3085;49.444;11.054;2023-05-10T00:11:38;11.80;;;5.50;;
6109;SDS011;3085;49.444;11.054;2023-05-10T00:14:05;7.20;;;4.50;;
6109;SDS011;3085;49.444;11.054;2023-05-10T00:16:32;9.63;;;5.30;;
6109;SDS011;3085;49.444;11.054;2023-05-10T00:18:59;11.03;;;5.40;;
6109;SDS011;3085;49.444;11.054;2023-05-10T00:21:26;9.47;;;4.90;;
6109;SDS011;3085;49.444;11.054;2023-05-10T00:23:53;12.23;;;4.33;;
6109;SDS011;3085;49.444;11.054;2023-05-10T00:26:21;10.53;;;5.47;;
6109;SDS011;3085;49.444;11.054;2023-05-10T00:28:48;7.83;;;4.53;;
6109;SDS011;3085;49.444;11.054;2023-05-10T00:31:15;5.50;;;3.27;;
6109;SDS011;3085;49.444;11.054;2023-05-10T00:33:42;7.50;;;4.43;;
6109;SDS011;3085;49.444;11.054;2023-05-10T00:36:09;6.70;;;3.80;;
6109;SDS011;3085;49.444;11.054;2023-05-10T00:38:35;5.27;;;3.20;;
6109;SDS011;3085;49.444;11.054;2023-05-10T00:41:03;9.47;;;4.47;;
6109;SDS011;3085;49.444;11.054;2023-05-10T00:43:31;11.47;;;4.10;;
6109;SDS011;3085;49.444;11.054;2023-05-10T00:45:58;6.50;;;4.10;;
6109;SDS011;3085;49.444;11.054;2023-05-10T00:48:25;7.03;;;3.87;;
6109;SDS011;3085;49.444;11.054;2023-05-10T00:50:52;4.90;;;3.40;;
6109;SDS011;3085;49.444;11.054;2023-05-10T00:53:19;7.00;;;4.20;;
6109;SDS011;3085;49.444;11.054;2023-05-10T00:55:46;7.83;;;4.33;;
6109;SDS011;3085;49.444;11.054;2023-05-10T00:58:13;9.50;;;4.83;;
6109;SDS011;3085;49.444;11.054;2023-05-10T01:00:42;9.00;;;4.40;;
6109;SDS011;3085;49.444;11.054;2023-05-10T01:03:09;6.97;;;4.30;;
6109;SDS011;3085;49.444;11.054;2023-05-10T01:05:36;9.90;;;5.40;;
6109;SDS011;3085;49.444;11.054;2023-05-10T01:08:03;7.37;;;5.10;;
6109;SDS011;3085;49.444;11.054;2023-05-10T01:10:31;8.57;;;4.53;;
6109;SDS011;3085;49.444;11.054;2023-05-10T01:12:58;6.57;;;3.90;;
6109;SDS011;3085;49.444;11.054;2023-05-10T01:15:25;4.03;;;3.00;;
6109;SDS011;3085;49.444;11.054;2023-05-10T01:17:54;5.27;;;3.87;;
6109;SDS011;3085;49.444;11.054;2023-05-10T01:20:22;5.03;;;3.40;;
6109;SDS011;3085;49.444;11.054;2023-05-10T01:25:54;9.43;;;5.00;;
6109;SDS011;3085;49.444;11.054;2023-05-10T01:28:39;9.27;;;3.93;;
6109;SDS011;3085;49.444;11.054;2023-05-10T01:34:34;6.03;;;3.17;;
6109;SDS011;3085;49.444;11.054;2023-05-10T01:37:06;7.83;;;4.70;;
6109;SDS011;3085;49.444;11.054;2023-05-10T01:39:36;4.83;;;3.60;;
6109;SDS011;3085;49.444;11.054;2023-05-10T01:42:11;7.77;;;3.70;;
6109;SDS011;3085;49.444;11.054;2023-05-10T01:44:42;5.13;;;3.47;;
6109;SDS011;3085;49.444;11.054;2023-05-10T01:47:17;5.53;;;3.33;;
6109;SDS011;3085;49.444;11.054;2023-05-10T01:49:50;5.90;;;3.13;;
6109;SDS011;3085;49.444;11.054;2023-05-10T01:52:22;10.37;;;3.93;;
6109;SDS011;3085;49.444;11.054;2023-05-10T01:54:58;6.80;;;3.90;;
6109;SDS011;3085;49.444;11.054;2023-05-10T01:57:36;6.23;;;3.40;;
6109;SDS011;3085;49.444;11.054;2023-05-10T02:00:06;7.50;;;3.90;;
6109;SDS011;3085;49.444;11.054;2023-05-10T02:02:37;6.73;;;3.67;;
6109;SDS011;3085;49.444;11.054;2023-05-10T02:05:05;5.80;;;3.23;;
6109;SDS011;3085;49.444;11.054;2023-05-10T02:07:33;5.87;;;3.70;;
6109;SDS011;3085;49.444;11.054;2023-05-10T02:10:02;5.73;;;3.37;;
6109;SDS011;3085;49.444;11.054;2023-05-10T02:12:31;5.90;;;3.47;;
6109;SDS011;3085;49.444;11.054;2023-05-10T02:15:02;4.87;;;2.80;;
6109;SDS011;3085;49.444;11.054;2023-05-10T02:17:32;5.40;;;3.33;;
6109;SDS011;3085;49.444;11.054;2023-05-10T02:20:01;5.07;;;2.73;;
6109;SDS011;3085;49.444;11.054;2023-05-10T02:22:29;5.73;;;3.30;;
6109;SDS011;3085;49.444;11.054;2023-05-10T02:24:57;6.57;;;3.23;;
6109;SDS011;3085;49.444;11.054;2023-05-10T02:27:27;4.80;;;2.90;;
6109;SDS011;3085;49.444;11.054;2023-05-10T02:29:55;3.30;;;2.70;;
6109;SDS011;3085;49.444;11.054;2023-05-10T02:32:24;4.33;;;3.03;;
6109;SDS011;3085;49.444;11.054;2023-05-10T02:34:52;3.90;;;2.60;;
6109;SDS011;3085;49.444;11.054;2023-05-10T02:37:22;6.30;;;2.77;;
6109;SDS011;3085;49.444;11.054;2023-05-10T02:39:50;3.67;;;2.40;;
6109;SDS011;3085;49.444;11.054;2023-05-10T02:42:20;8.80;;;2.87;;
6109;SDS011;3085;49.444;11.054;2023-05-10T02:44:50;7.40;;;2.10;;
6109;SDS011;3085;49.444;11.054;2023-05-10T02:47:20;6.40;;;2.67;;
6109;SDS011;3085;49.444;11.054;2023-05-10T02:49:47;3.13;;;2.00;;
6109;SDS011;3085;49.444;11.054;2023-05-10T02:52:15;3.93;;;2.43;;
6109;SDS011;3085;49.444;11.054;2023-05-10T02:54:58;2.47;;;1.83;;
6109;SDS011;3085;49.444;11.054;2023-05-10T02:57:30;4.77;;;2.30;;
6109;SDS011;3085;49.444;11.054;2023-05-10T02:59:59;3.77;;;2.43;;
6109;SDS011;3085;49.444;11.054;2023-05-10T03:02:26;2.47;;;1.80;;
6109;SDS011;3085;49.444;11.054;2023-05-10T03:04:55;3.30;;;2.13;;
6109;SDS011;3085;49.444;11.054;2023-05-10T03:07:22;2.30;;;1.43;;
6109;SDS011;3085;49.444;11.054;2023-05-10T03:09:49;2.70;;;1.50;;
6109;SDS011;3085;49.444;11.054;2023-05-10T03:12:20;2.00;;;1.40;;
6109;SDS011;3085;49.444;11.054;2023-05-10T03:14:54;2.60;;;1.80;;
6109;SDS011;3085;49.444;11.054;2023-05-10T03:17:29;3.60;;;1.67;;
6109;SDS011;3085;49.444;11.054;2023-05-10T03:20:03;2.87;;;2.10;;
6109;SDS011;3085;49.444;11.054;2023-05-10T03:22:34;3.10;;;1.50;;
6109;SDS011;3085;49.444;11.054;2023-05-10T03:25:04;1.63;;;1.20;;
6109;SDS011;3085;49.444;11.054;2023-05-10T03:27:34;2.97;;;1.47;;
6109;SDS011;3085;49.444;11.054;2023-05-10T03:30:05;1.87;;;1.43;;
6109;SDS011;3085;49.444;11.054;2023-05-10T03:32:36;3.77;;;1.87;;
6109;SDS011;3085;49.444;11.054;2023-05-10T03:35:06;2.13;;;1.20;;
6109;SDS011;3085;49.444;11.054;2023-05-10T03:37:33;2.50;;;1.77;;
6109;SDS011;3085;49.444;11.054;2023-05-10T03:40:00;3.00;;;1.50;;
6109;SDS011;3085;49.444;11.054;2023-05-10T03:42:27;1.50;;;1.20;;
6109;SDS011;3085;49.444;11.054;2023-05-10T03:44:55;1.97;;;1.20;;
6109;SDS011;3085;49.444;11.054;2023-05-10T03:47:22;1.80;;;1.20;;
6109;SDS011;3085;49.444;11.054;2023-05-10T03:49:49;1.60;;;1.20;;
6109;SDS011;3085;49.444;11.054;2023-05-10T03:52:16;1.67;;;1.00;;
6109;SDS011;3085;49.444;11.054;2023-05-10T03:54:43;1.50;;;1.00;;
6109;SDS011;3085;49.444;11.054;2023-05-10T03:57:10;2.03;;;1.07;;
6109;SDS011;3085;49.444;11.054;2023-05-10T03:59:36;1.77;;;1.30;;
6109;SDS011;3085;49.444;11.054;2023-05-10T04:02:04;1.40;;;0.93;;
6109;SDS011;3085;49.444;11.054;2023-05-10T04:04:34;1.47;;;0.90;;
6109;SDS011;3085;49.444;11.054;2023-05-10T04:07:01;1.87;;;1.00;;
6109;SDS011;3085;49.444;11.054;2023-05-10T04:09:29;2.17;;;1.17;;
6109;SDS011;3085;49.444;11.054;2023-05-10T04:11:59;1.40;;;0.90;;
6109;SDS011;3085;49.444;11.054;2023-05-10T04:14:27;1.20;;;0.97;;
6109;SDS011;3085;49.444;11.054;2023-05-10T04:16:54;1.50;;;1.00;;
6109;SDS011;3085;49.444;11.054;2023-05-10T04:19:22;2.33;;;1.37;;
6109;SDS011;3085;49.444;11.054;2023-05-10T04:21:54;1.57;;;1.00;;
6109;SDS011;3085;49.444;11.054;2023-05-10T04:24:21;1.50;;;1.00;;
6109;SDS011;3085;49.444;11.054;2023-05-10T04:26:48;2.33;;;1.20;;
6109;SDS011;3085;49.444;11.054;2023-05-10T04:29:15;1.70;;;1.13;;
6109;SDS011;3085;49.444;11.054;2023-05-10T04:31:41;1.40;;;1.07;;
6109;SDS011;3085;49.444;11.054;2023-05-10T04:34:08;1.40;;;1.00;;
6109;SDS011;3085;49.444;11.054;2023-05-10T04:36:39;1.77;;;1.07;;
6109;SDS011;3085;49.444;11.054;2023-05-10T04:39:06;1.50;;;1.13;;
6109;SDS011;3085;49.444;11.054;2023-05-10T04:41:34;2.73;;;1.27;;
6109;SDS011;3085;49.444;11.054;2023-05-10T04:44:01;1.40;;;1.10;;
6109;SDS011;3085;49.444;11.054;2023-05-10T04:46:28;2.40;;;1.10;;
6109;SDS011;3085;49.444;11.054;2023-05-10T04:48:55;1.53;;;1.10;;
6109;SDS011;3085;49.444;11.054;2023-05-10T04:51:21;1.50;;;1.10;;
6109;SDS011;3085;49.444;11.054;2023-05-10T04:53:49;1.97;;;1.00;;
6109;SDS011;3085;49.444;11.054;2023-05-10T04:56:16;1.40;;;1.00;;
6109;SDS011;3085;49.444;11.054;2023-05-10T04:58:43;2.90;;;1.10;;
6109;SDS011;3085;49.444;11.054;2023-05-10T05:01:10;1.73;;;1.13;;
6109;SDS011;3085;49.444;11.054;2023-05-10T05:03:37;1.60;;;1.17;;
6109;SDS011;3085;49.444;11.054;2023-05-10T05:06:04;1.80;;;0.97;;
6109;SDS011;3085;49.444;11.054;2023-05-10T05:08:31;2.33;;;1.20;;
6109;SDS011;3085;49.444;11.054;2023-05-10T05:10:59;2.33;;;1.20;;
6109;SDS011;3085;49.444;11.054;2023-05-10T05:13:26;1.60;;;1.10;;
6109;SDS011;3085;49.444;11.054;2023-05-10T05:15:53;1.67;;;1.00;;
6109;SDS011;3085;49.444;11.054;2023-05-10T05:18:20;1.70;;;1.30;;
6109;SDS011;3085;49.444;11.054;2023-05-10T05:20:47;1.67;;;1.00;;
6109;SDS011;3085;49.444;11.054;2023-05-10T05:23:13;2.33;;;1.17;;
6109;SDS011;3085;49.444;11.054;2023-05-10T05:25:40;3.43;;;1.20;;
6109;SDS011;3085;49.444;11.054;2023-05-10T05:28:09;1.60;;;1.10;;
6109;SDS011;3085;49.444;11.054;2023-05-10T05:30:36;1.60;;;1.00;;
6109;SDS011;3085;49.444;11.054;2023-05-10T05:33:03;1.73;;;1.27;;
6109;SDS011;3085;49.444;11.054;2023-05-10T05:35:29;1.50;;;1.00;;
6109;SDS011;3085;49.444;11.054;2023-05-10T05:37:56;2.30;;;1.33;;
6109;SDS011;3085;49.444;11.054;2023-05-10T05:40:23;1.83;;;1.07;;
6109;SDS011;3085;49.444;11.054;2023-05-10T05:42:50;1.37;;;0.97;;
6109;SDS011;3085;49.444;11.054;2023-05-10T05:45:18;1.23;;;1.00;;
6109;SDS011;3085;49.444;11.054;2023-05-10T05:47:45;5.10;;;1.43;;
6109;SDS011;3085;49.444;11.054;2023-05-10T05:50:12;2.03;;;1.13;;
6109;SDS011;3085;49.444;11.054;2023-05-10T05:52:39;1.87;;;1.20;;
6109;SDS011;3085;49.444;11.054;2023-05-10T05:55:06;1.90;;;1.43;;
6109;SDS011;3085;49.444;11.054;2023-05-10T05:57:33;2.53;;;1.20;;
6109;SDS011;3085;49.444;11.054;2023-05-10T06:00:00;1.60;;;1.23;;
6109;SDS011;3085;49.444;11.054;2023-05-10T06:02:29;1.40;;;1.10;;
6109;SDS011;3085;49.444;11.054;2023-05-10T06:04:55;1.67;;;1.30;;
6109;SDS011;3085;49.444;11.054;2023-05-10T06:07:22;1.43;;;1.30;;
6109;SDS011;3085;49.444;11.054;2023-05-10T06:09:50;3.47;;;1.20;;
6109;SDS011;3085;49.444;11.054;2023-05-10T06:12:17;1.47;;;1.17;;
6109;SDS011;3085;49.444;11.054;2023-05-10T06:14:43;1.60;;;1.10;;
6109;SDS011;3085;49.444;11.054;2023-05-10T06:17:10;1.87;;;1.43;;
6109;SDS011;3085;49.444;11.054;2023-05-10T06:19:38;1.50;;;1.20;;
6109;SDS011;3085;49.444;11.054;2023-05-10T06:22:05;2.23;;;1.10;;
6109;SDS011;3085;49.444;11.054;2023-05-10T06:24:32;3.40;;;1.20;;
6109;SDS011;3085;49.444;11.054;2023-05-10T06:26:59;1.57;;;0.90;;
6109;SDS011;3085;49.444;11.054;2023-05-10T06:29:27;1.40;;;1.10;;
6109;SDS011;3085;49.444;11.054;2023-05-10T06:31:53;1.80;;;1.17;;
6109;SDS011;3085;49.444;11.054;2023-05-10T06:34:20;3.60;;;1.40;;
6109;SDS011;3085;49.444;11.054;2023-05-10T06:36:49;2.10;;;1.30;;
6109;SDS011;3085;49.444;11.054;2023-05-10T06:39:16;1.80;;;1.30;;
6109;SDS011;3085;49.444;11.054;2023-05-10T06:41:43;2.43;;;1.40;;
6109;SDS011;3085;49.444;11.054;2023-05-10T06:44:10;1.80;;;1.23;;
6109;SDS011;3085;49.444;11.054;2023-05-10T06:46:37;2.43;;;1.23;;
6109;SDS011;3085;49.444;11.054;2023-05-10T06:49:04;1.90;;;1.20;;
6109;SDS011;3085;49.444;11.054;2023-05-10T06:51:31;2.70;;;1.60;;
6109;SDS011;3085;49.444;11.054;2023-05-10T06:54:02;2.30;;;1.70;;
6109;SDS011;3085;49.444;11.054;2023-05-10T06:56:29;10.37;;;2.50;;
6109;SDS011;3085;49.444;11.054;2023-05-10T06:58:56;2.00;;;1.30;;
6109;SDS011;3085;49.444;11.054;2023-05-10T07:01:23;1.60;;;1.20;;
6109;SDS011;3085;49.444;11.054;2023-05-10T07:03:49;1.50;;;1.30;;
6109;SDS011;3085;49.444;11.054;2023-05-10T07:06:17;2.73;;;1.50;;
6109;SDS011;3085;49.444;11.054;2023-05-10T07:08:43;2.27;;;1.33;;
6109;SDS011;3085;49.444;11.054;2023-05-10T07:11:12;1.63;;;1.23;;
6109;SDS011;3085;49.444;11.054;2023-05-10T07:13:38;3.47;;;1.87;;
6109;SDS011;3085;49.444;11.054;2023-05-10T07:16:09;2.13;;;1.47;;
6109;SDS011;3085;49.444;11.054;2023-05-10T07:18:36;1.37;;;1.10;;
6109;SDS011;3085;49.444;11.054;2023-05-10T07:21:03;1.50;;;1.00;;
6109;SDS011;3085;49.444;11.054;2023-05-10T07:23:30;3.20;;;1.53;;
6109;SDS011;3085;49.444;11.054;2023-05-10T07:25:56;1.53;;;1.30;;
6109;SDS011;3085;49.444;11.054;2023-05-10T07:28:24;1.80;;;1.20;;
6109;SDS011;3085;49.444;11.054;2023-05-10T07:30:51;5.23;;;1.47;;
6109;SDS011;3085;49.444;11.054;2023-05-10T07:33:18;1.90;;;1.60;;
6109;SDS011;3085;49.444;11.054;2023-05-10T07:35:45;1.90;;;1.20;;
6109;SDS011;3085;49.444;11.054;2023-05-10T07:38:12;1.57;;;1.20;;
6109;SDS011;3085;49.444;11.054;2023-05-10T07:40:38;1.80;;;1.30;;
6109;SDS011;3085;49.444;11.054;2023-05-10T07:43:05;7.77;;;1.30;;
6109;SDS011;3085;49.444;11.054;2023-05-10T07:45:34;3.57;;;1.63;;
6109;SDS011;3085;49.444;11.054;2023-05-10T07:48:01;1.83;;;1.30;;
6109;SDS011;3085;49.444;11.054;2023-05-10T07:50:28;2.33;;;1.60;;
6109;SDS011;3085;49.444;11.054;2023-05-10T07:52:55;3.03;;;1.90;;
6109;SDS011;3085;49.444;11.054;2023-05-10T07:55:21;1.90;;;1.57;;
6109;SDS011;3085;49.444;11.054;2023-05-10T07:57:48;2.07;;;1.30;;
6109;SDS011;3085;49.444;11.054;2023-05-10T08:00:16;2.17;;;1.47;;
6109;SDS011;3085;49.444;11.054;2023-05-10T08:02:46;1.97;;;1.37;;
6109;SDS011;3085;49.444;11.054;2023-05-10T08:05:13;2.27;;;1.30;;
6109;SDS011;3085;49.444;11.054;2023-05-10T08:07:40;1.40;;;1.10;;
6109;SDS011;3085;49.444;11.054;2023-05-10T08:10:08;1.50;;;1.10;;
6109;SDS011;3085;49.444;11.054;2023-05-10T08:12:36;1.50;;;1.23;;
6109;SDS011;3085;49.444;11.054;2023-05-10T08:15:03;1.60;;;1.37;;
6109;SDS011;3085;49.444;11.054;2023-05-10T08:17:31;5.43;;;1.40;;
6109;SDS011;3085;49.444;11.054;2023-05-10T08:19:59;4.27;;;1.60;;
6109;SDS011;3085;49.444;11.054;2023-05-10T08:22:26;4.03;;;1.50;;
6109;SDS011;3085;49.444;11.054;2023-05-10T08:24:56;6.03;;;1.70;;
6109;SDS011;3085;49.444;11.054;2023-05-10T08:27:23;2.10;;;1.40;;
6109;SDS011;3085;49.444;11.054;2023-05-10T08:29:50;1.87;;;1.47;;
6109;SDS011;3085;49.444;11.054;2023-05-10T08:32:17;1.70;;;1.20;;
6109;SDS011;3085;49.444;11.054;2023-05-10T08:34:44;1.73;;;1.30;;
6109;SDS011;3085;49.444;11.054;2023-05-10T08:37:12;2.43;;;1.67;;
6109;SDS011;3085;49.444;11.054;2023-05-10T08:39:38;3.00;;;1.50;;
6109;SDS011;3085;49.444;11.054;2023-05-10T08:42:05;3.33;;;1.50;;
6109;SDS011;3085;49.444;11.054;2023-05-10T08:44:34;1.40;;;1.10;;
6109;SDS011;3085;49.444;11.054;2023-05-10T08:47:02;2.33;;;1.30;;
6109;SDS011;3085;49.444;11.054;2023-05-10T08:49:32;1.60;;;1.27;;
6109;SDS011;3085;49.444;11.054;2023-05-10T08:52:00;2.80;;;1.30;;
6109;SDS011;3085;49.444;11.054;2023-05-10T08:54:31;8.00;;;1.63;;
6109;SDS011;3085;49.444;11.054;2023-05-10T08:56:58;1.80;;;1.37;;
6109;SDS011;3085;49.444;11.054;2023-05-10T08:59:25;3.00;;;1.53;;
6109;SDS011;3085;49.444;11.054;2023-05-10T09:01:52;2.77;;;1.80;;
6109;SDS011;3085;49.444;11.054;2023-05-10T09:04:21;2.53;;;1.70;;
6109;SDS011;3085;49.444;11.054;2023-05-10T09:06:49;2.50;;;1.40;;
6109;SDS011;3085;49.444;11.054;2023-05-10T09:09:15;1.87;;;1.47;;
6109;SDS011;3085;49.444;11.054;2023-05-10T09:11:45;3.00;;;1.63;;
6109;SDS011;3085;49.444;11.054;2023-05-10T09:14:15;4.40;;;1.50;;
6109;SDS011;3085;49.444;11.054;2023-05-10T09:16:42;3.37;;;2.07;;
6109;SDS011;3085;49.444;11.054;2023-05-10T09:19:09;1.90;;;1.70;;
6109;SDS011;3085;49.444;11.054;2023-05-10T09:21:36;1.83;;;1.53;;
6109;SDS011;3085;49.444;11.054;2023-05-10T09:24:05;4.20;;;1.63;;
6109;SDS011;3085;49.444;11.054;2023-05-10T09:26:33;16.07;;;2.20;;
6109;SDS011;3085;49.444;11.054;2023-05-10T09:29:02;3.87;;;1.83;;
6109;SDS011;3085;49.444;11.054;2023-05-10T09:31:46;2.33;;;1.80;;
6109;SDS011;3085;49.444;11.054;2023-05-10T09:34:16;2.33;;;1.97;;
6109;SDS011;3085;49.444;11.054;2023-05-10T09:36:53;2.20;;;1.70;;
6109;SDS011;3085;49.444;11.054;2023-05-10T09:39:23;4.00;;;1.90;;
6109;SDS011;3085;49.444;11.054;2023-05-10T09:41:57;6.40;;;2.27;;
6109;SDS011;3085;49.444;11.054;2023-05-10T09:44:27;7.07;;;2.07;;
6109;SDS011;3085;49.444;11.054;2023-05-10T09:46:53;1.53;;;1.30;;
6109;SDS011;3085;49.444;11.054;2023-05-10T09:49:21;2.40;;;1.90;;
6109;SDS011;3085;49.444;11.054;2023-05-10T09:51:57;4.43;;;2.20;;
6109;SDS011;3085;49.444;11.054;2023-05-10T09:54:27;2.07;;;1.73;;
6109;SDS011;3085;49.444;11.054;2023-05-10T09:56:54;2.33;;;1.90;;
6109;SDS011;3085;49.444;11.054;2023-05-10T09:59:21;1.93;;;1.47;;
6109;SDS011;3085;49.444;11.054;2023-05-10T10:01:52;2.40;;;1.83;;
6109;SDS011;3085;49.444;11.054;2023-05-10T10:04:19;5.37;;;2.23;;
6109;SDS011;3085;49.444;11.054;2023-05-10T10:06:52;2.50;;;1.47;;
6109;SDS011;3085;49.444;11.054;2023-05-10T10:09:25;2.93;;;1.60;;
6109;SDS011;3085;49.444;11.054;2023-05-10T10:11:52;2.77;;;1.20;;
6109;SDS011;3085;49.444;11.054;2023-05-10T10:14:20;1.80;;;1.30;;
6109;SDS011;3085;49.444;11.054;2023-05-10T10:16:48;1.93;;;1.40;;
6109;SDS011;3085;49.444;11.054;2023-05-10T10:19:16;2.23;;;1.50;;
6109;SDS011;3085;49.444;11.054;2023-05-10T10:21:44;7.30;;;1.27;;
6109;SDS011;3085;49.444;11.054;2023-05-10T10:24:11;1.87;;;1.30;;
6109;SDS011;3085;49.444;11.054;2023-05-10T10:26:37;1.90;;;1.27;;
6109;SDS011;3085;49.444;11.054;2023-05-10T10:29:09;1.70;;;1.30;;
6109;SDS011;3085;49.444;11.054;2023-05-10T10:31:45;2.40;;;1.90;;
6109;SDS011;3085;49.444;11.054;2023-05-10T10:34:20;2.43;;;1.13;;
6109;SDS011;3085;49.444;11.054;2023-05-10T10:36:52;2.10;;;1.20;;
6109;SDS011;3085;49.444;11.054;2023-05-10T10:39:20;6.23;;;1.30;;
6109;SDS011;3085;49.444;11.054;2023-05-10T10:41:50;2.00;;;1.30;;
6109;SDS011;3085;49.444;11.054;2023-05-10T10:44:36;1.80;;;1.13;;
6109;SDS011;3085;49.444;11.054;2023-05-10T10:47:08;1.70;;;1.13;;
6109;SDS011;3085;49.444;11.054;2023-05-10T10:50:03;1.43;;;1.00;;
6109;SDS011;3085;49.444;11.054;2023-05-10T10:52:32;1.77;;;1.30;;
6109;SDS011;3085;49.444;11.054;2023-05-10T10:55:00;2.70;;;1.43;;
6109;SDS011;3085;49.444;11.054;2023-05-10T10:57:42;3.40;;;1.20;;
6109;SDS011;3085;49.444;11.054;2023-05-10T11:00:21;1.60;;;1.07;;
6109;SDS011;3085;49.444;11.054;2023-05-10T11:02:53;2.30;;;1.17;;
6109;SDS011;3085;49.444;11.054;2023-05-10T11:08:12;4.00;;;1.30;;
6109;SDS011;3085;49.444;11.054;2023-05-10T11:10:54;2.17;;;1.27;;
6109;SDS011;3085;49.444;11.054;2023-05-10T11:13:29;4.03;;;1.80;;
6109;SDS011;3085;49.444;11.054;2023-05-10T11:15:58;1.80;;;1.37;;
6109;SDS011;3085;49.444;11.054;2023-05-10T11:18:26;4.43;;;1.17;;
6109;SDS011;3085;49.444;11.054;2023-05-10T11:20:57;6.07;;;1.60;;
6109;SDS011;3085;49.444;11.054;2023-05-10T11:23:29;3.60;;;1.30;;
6109;SDS011;3085;49.444;11.054;2023-05-10T11:25:57;1.93;;;1.13;;
6109;SDS011;3085;49.444;11.054;2023-05-10T11:28:25;2.47;;;1.43;;
6109;SDS011;3085;49.444;11.054;2023-05-10T11:30:53;2.63;;;1.40;;
6109;SDS011;3085;49.444;11.054;2023-05-10T11:33:21;2.13;;;1.30;;
6109;SDS011;3085;49.444;11.054;2023-05-10T11:35:48;3.10;;;1.43;;
6109;SDS011;3085;49.444;11.054;2023-05-10T11:38:16;5.50;;;1.80;;
6109;SDS011;3085;49.444;11.054;2023-05-10T11:40:43;2.00;;;1.30;;
6109;SDS011;3085;49.444;11.054;2023-05-10T11:43:10;2.37;;;1.50;;
6109;SDS011;3085;49.444;11.054;2023-05-10T11:45:37;2.37;;;1.23;;
6109;SDS011;3085;49.444;11.054;2023-05-10T11:48:04;7.30;;;2.37;;
6109;SDS011;3085;49.444;11.054;2023-05-10T11:50:31;2.17;;;1.40;;
6109;SDS011;3085;49.444;11.054;2023-05-10T11:52:58;1.50;;;1.20;;
6109;SDS011;3085;49.444;11.054;2023-05-10T11:55:26;1.67;;;1.40;;
6109;SDS011;3085;49.444;11.054;2023-05-10T11:57:55;4.23;;;1.60;;
6109;SDS011;3085;49.444;11.054;2023-05-10T12:00:27;3.10;;;1.67;;
6109;SDS011;3085;49.444;11.054;2023-05-10T12:02:54;6.53;;;1.57;;
6109;SDS011;3085;49.444;11.054;2023-05-10T12:05:21;2.77;;;1.80;;
6109;SDS011;3085;49.444;11.054;2023-05-10T12:07:48;2.10;;;1.60;;
6109;SDS011;3085;49.444;11.054;2023-05-10T12:10:15;2.83;;;2.00;;
6109;SDS011;3085;49.444;11.054;2023-05-10T12:12:44;3.17;;;1.90;;
6109;SDS011;3085;49.444;11.054;2023-05-10T12:15:12;5.83;;;1.70;;
6109;SDS011;3085;49.444;11.054;2023-05-10T12:17:45;7.17;;;3.50;;
6109;SDS011;3085;49.444;11.054;2023-05-10T12:20:12;3.83;;;1.90;;
6109;SDS011;3085;49.444;11.054;2023-05-10T12:22:40;2.50;;;1.70;;
6109;SDS011;3085;49.444;11.054;2023-05-10T12:25:09;3.97;;;1.73;;
6109;SDS011;3085;49.444;11.054;2023-05-10T12:27:36;3.27;;;1.50;;
6109;SDS011;3085;49.444;11.054;2023-05-10T12:30:06;2.20;;;1.40;;
6109;SDS011;3085;49.444;11.054;2023-05-10T12:32:40;2.17;;;1.30;;
6109;SDS011;3085;49.444;11.054;2023-05-10T12:35:07;1.20;;;1.00;;
6109;SDS011;3085;49.444;11.054;2023-05-10T12:37:35;1.90;;;1.17;;
6109;SDS011;3085;49.444;11.054;2023-05-10T12:40:05;1.80;;;1.33;;
6109;SDS011;3085;49.444;11.054;2023-05-10T12:42:40;2.00;;;1.20;;
6109;SDS011;3085;49.444;11.054;2023-05-10T12:45:11;1.60;;;1.07;;
6109;SDS011;3085;49.444;11.054;2023-05-10T12:47:38;1.50;;;1.07;;
6109;SDS011;3085;49.444;11.054;2023-05-10T12:50:05;1.70;;;1.00;;
6109;SDS011;3085;49.444;11.054;2023-05-10T12:52:32;1.30;;;1.00;;
6109;SDS011;3085;49.444;11.054;2023-05-10T12:54:59;1.83;;;1.03;;
6109;SDS011;3085;49.444;11.054;2023-05-10T12:57:28;2.80;;;1.30;;
6109;SDS011;3085;49.444;11.054;2023-05-10T12:59:55;1.60;;;1.20;;
6109;SDS011;3085;49.444;11.054;2023-05-10T13:02:25;3.00;;;1.30;;
6109;SDS011;3085;49.444;11.054;2023-05-10T13:04:52;1.97;;;1.20;;
6109;SDS011;3085;49.444;11.054;2023-05-10T13:07:19;2.00;;;1.30;;
6109;SDS011;3085;49.444;11.054;2023-05-10T13:09:46;5.60;;;1.53;;
6109;SDS011;3085;49.444;11.054;2023-05-10T13:12:13;2.10;;;1.27;;
6109;SDS011;3085;49.444;11.054;2023-05-10T13:14:39;1.70;;;0.90;;
6109;SDS011;3085;49.444;11.054;2023-05-10T13:17:06;2.57;;;1.30;;
6109;SDS011;3085;49.444;11.054;2023-05-10T13:19:34;1.90;;;1.30;;
6109;SDS011;3085;49.444;11.054;2023-05-10T13:22:02;2.43;;;1.43;;
6109;SDS011;3085;49.444;11.054;2023-05-10T13:24:29;3.13;;;1.43;;
6109;SDS011;3085;49.444;11.054;2023-05-10T13:26:56;2.07;;;1.07;;
6109;SDS011;3085;49.444;11.054;2023-05-10T13:29:23;1.83;;;1.20;;
6109;SDS011;3085;49.444;11.054;2023-05-10T13:32:01;2.20;;;1.30;;
6109;SDS011;3085;49.444;11.054;2023-05-10T13:34:54;6.70;;;1.17;;
6109;SDS011;3085;49.444;11.054;2023-05-10T13:37:21;2.30;;;1.73;;
6109;SDS011;3085;49.444;11.054;2023-05-10T13:39:48;5.27;;;2.03;;
6109;SDS011;3085;49.444;11.054;2023-05-10T13:42:14;2.63;;;1.20;;
6109;SDS011;3085;49.444;11.054;2023-05-10T13:44:41;3.30;;;1.47;;
6109;SDS011;3085;49.444;11.054;2023-05-10T13:47:08;1.70;;;1.17;;
6109;SDS011;3085;49.444;11.054;2023-05-10T13:49:35;3.70;;;1.60;;
6109;SDS011;3085;49.444;11.054;2023-05-10T13:52:03;1.77;;;1.47;;
6109;SDS011;3085;49.444;11.054;2023-05-10T13:54:31;1.30;;;0.93;;
6109;SDS011;3085;49.444;11.054;2023-05-10T13:56:58;2.13;;;1.00;;
6109;SDS011;3085;49.444;11.054;2023-05-10T13:59:25;2.40;;;1.10;;
6109;SDS011;3085;49.444;11.054;2023-05-10T14:01:52;1.57;;;1.10;;
6109;SDS011;3085;49.444;11.054;2023-05-10T14:04:19;1.70;;;1.17;;
6109;SDS011;3085;49.444;11.054;2023-05-10T14:06:45;1.20;;;0.90;;
6109;SDS011;3085;49.444;11.054;2023-05-10T14:09:13;3.00;;;1.23;;
6109;SDS011;3085;49.444;11.054;2023-05-10T14:11:40;1.83;;;1.17;;
6109;SDS011;3085;49.444;11.054;2023-05-10T14:14:08;7.07;;;1.90;;
6109;SDS011;3085;49.444;11.054;2023-05-10T14:16:35;1.67;;;0.97;;
6109;SDS011;3085;49.444;11.054;2023-05-10T14:19:02;1.63;;;1.00;;
6109;SDS011;3085;49.444;11.054;2023-05-10T14:21:28;1.47;;;1.30;;
6109;SDS011;3085;49.444;11.054;2023-05-10T14:23:55;1.73;;;1.20;;
6109;SDS011;3085;49.444;11.054;2023-05-10T14:26:24;3.20;;;1.10;;
6109;SDS011;3085;49.444;11.054;2023-05-10T14:28:51;1.47;;;0.93;;
6109;SDS011;3085;49.444;11.054;2023-05-10T14:31:18;2.80;;;1.10;;
6109;SDS011;3085;49.444;11.054;2023-05-10T14:33:45;2.73;;;2.03;;
6109;SDS011;3085;49.444;11.054;2023-05-10T14:36:12;2.53;;;1.20;;
6109;SDS011;3085;49.444;11.054;2023-05-10T14:38:39;1.63;;;1.13;;
6109;SDS011;3085;49.444;11.054;2023-05-10T14:41:06;1.90;;;1.27;;
6109;SDS011;3085;49.444;11.054;2023-05-10T14:43:34;3.10;;;1.30;;
6109;SDS011;3085;49.444;11.054;2023-05-10T14:46:01;1.60;;;1.10;;
6109;SDS011;3085;49.444;11.054;2023-05-10T14:48:28;1.97;;;1.30;;
6109;SDS011;3085;49.444;11.054;2023-05-10T14:50:55;3.47;;;1.50;;
6109;SDS011;3085;49.444;11.054;2023-05-10T14:53:22;2.13;;;1.20;;
6109;SDS011;3085;49.444;11.054;2023-05-10T14:55:49;2.23;;;1.40;;
6109;SDS011;3085;49.444;11.054;2023-05-10T14:58:15;1.70;;;1.30;;
6109;SDS011;3085;49.444;11.054;2023-05-10T15:00:43;1.70;;;1.27;;
6109;SDS011;3085;49.444;11.054;2023-05-10T15:03:11;2.50;;;1.63;;
6109;SDS011;3085;49.444;11.054;2023-05-10T15:05:38;2.20;;;1.57;;
6109;SDS011;3085;49.444;11.054;2023-05-10T15:08:05;1.50;;;1.30;;
6109;SDS011;3085;49.444;11.054;2023-05-10T15:10:32;1.50;;;1.23;;
6109;SDS011;3085;49.444;11.054;2023-05-10T15:12:59;1.63;;;1.30;;
6109;SDS011;3085;49.444;11.054;2023-05-10T15:15:25;3.20;;;1.20;;
6109;SDS011;3085;49.444;11.054;2023-05-10T15:17:53;2.07;;;1.53;;